createdAt,value
2022-11-05T00:00:37.183Z,16.36
2022-11-05T00:03:23.650Z,16.11
2022-11-05T00:06:11.442Z,16.32
2022-11-05T00:08:58.259Z,15.94
2022-11-05T00:11:45.176Z,15.76
2022-11-05T00:14:30.862Z,16.07
2022-11-05T00:16:57.820Z,16.28
2022-11-05T00:19:24.521Z,15.86
2022-11-05T00:22:09.785Z,15.79
2022-11-05T00:24:55.046Z,15.96
2022-11-05T00:27:22.097Z,16.22
2022-11-05T00:29:48.811Z,16.01
2022-11-05T00:32:15.804Z,15.87
2022-11-05T00:34:42.627Z,16.10
2022-11-05T00:37:09.450Z,16.19
2022-11-05T00:39:36.334Z,15.85
2022-11-05T00:42:21.671Z,16.17
2022-11-05T00:45:04.175Z,16.33
2022-11-05T00:47:51.055Z,15.60
2022-11-05T00:50:20.103Z,15.80
2022-11-05T00:52:59.443Z,15.61
2022-11-05T00:55:29.287Z,15.95
2022-11-05T00:57:57.522Z,16.10
2022-11-05T01:00:26.862Z,16.17
2022-11-05T01:02:54.108Z,16.33
2022-11-05T01:05:20.978Z,16.43
2022-11-05T01:07:48.095Z,15.92
2022-11-05T01:10:14.927Z,15.98
2022-11-05T01:12:41.782Z,16.04
2022-11-05T01:15:09.048Z,16.06
2022-11-05T01:17:35.972Z,16.16
2022-11-05T01:20:02.881Z,16.24
2022-11-05T01:22:30.141Z,15.84
2022-11-05T01:24:56.802Z,15.95
2022-11-05T01:27:23.772Z,15.99
2022-11-05T01:29:50.633Z,15.85
2022-11-05T01:32:17.372Z,16.05
2022-11-05T01:34:44.229Z,14.77
2022-11-05T01:37:10.928Z,14.68
2022-11-05T01:39:37.783Z,15.41
2022-11-05T01:42:12.494Z,15.61
2022-11-05T01:44:59.043Z,15.73
2022-11-05T01:47:36.353Z,15.93
2022-11-05T01:50:25.023Z,16.03
2022-11-05T01:52:58.172Z,15.95
2022-11-05T01:55:30.348Z,15.63
2022-11-05T01:57:59.749Z,15.09
2022-11-05T02:00:27.957Z,15.36
2022-11-05T02:02:55.208Z,15.84
2022-11-05T02:05:22.580Z,15.89
2022-11-05T02:07:50.967Z,15.77
2022-11-05T02:10:20.535Z,16.02
2022-11-05T02:12:51.078Z,16.12
2022-11-05T02:15:43.767Z,15.98
2022-11-05T02:18:27.896Z,15.52
2022-11-05T02:21:13.113Z,15.57
2022-11-05T02:24:08.112Z,15.41
2022-11-05T02:27:00.789Z,15.22
2022-11-05T02:29:33.563Z,15.54
2022-11-05T02:32:17.879Z,15.27
2022-11-05T02:34:53.589Z,15.54
2022-11-05T02:37:32.345Z,15.54
2022-11-05T02:40:13.505Z,15.54
2022-11-05T02:43:03.092Z,15.61
2022-11-05T02:45:49.993Z,15.48
2022-11-05T02:48:35.712Z,15.62
2022-11-05T02:51:32.872Z,15.61
2022-11-05T02:54:12.594Z,15.73
2022-11-05T02:56:44.180Z,15.80
2022-11-05T02:59:10.956Z,15.81
2022-11-05T03:01:39.696Z,15.35
2022-11-05T03:04:10.806Z,15.59
2022-11-05T03:06:59.211Z,15.14
2022-11-05T03:09:26.173Z,15.43
2022-11-05T03:12:37.132Z,15.43
2022-11-05T03:15:04.865Z,15.03
2022-11-05T03:17:37.893Z,15.32
2022-11-05T03:20:19.482Z,15.30
2022-11-05T03:23:15.601Z,15.03
2022-11-05T03:26:19.238Z,15.34
2022-11-05T03:28:54.311Z,15.34
2022-11-05T03:31:24.744Z,15.07
2022-11-05T03:33:55.048Z,15.40
2022-11-05T03:36:35.364Z,15.39
2022-11-05T03:39:06.309Z,15.45
2022-11-05T03:41:35.084Z,15.44
2022-11-05T03:44:05.501Z,15.04
2022-11-05T03:46:38.273Z,15.41
2022-11-05T03:49:09.665Z,15.52
2022-11-05T03:51:48.720Z,15.19
2022-11-05T03:54:15.723Z,15.29
2022-11-05T03:57:00.843Z,15.83
2022-11-05T03:59:29.949Z,15.54
2022-11-05T04:01:57.503Z,15.50
2022-11-05T04:04:24.902Z,15.25
2022-11-05T04:07:10.767Z,15.22
2022-11-05T04:09:56.007Z,15.19
2022-11-05T04:12:41.651Z,15.15
2022-11-05T04:15:08.816Z,15.18
2022-11-05T04:17:35.509Z,15.12
2022-11-05T04:20:21.082Z,15.34
2022-11-05T04:23:06.479Z,15.01
2022-11-05T04:25:33.432Z,15.07
2022-11-05T04:28:00.624Z,15.26
2022-11-05T04:30:27.345Z,15.30
2022-11-05T04:32:59.989Z,15.41
2022-11-05T04:35:47.087Z,15.23
2022-11-05T04:38:16.469Z,15.36
2022-11-05T04:40:43.997Z,15.41
2022-11-05T04:43:15.759Z,15.35
2022-11-05T04:45:43.136Z,15.38
2022-11-05T04:48:10.736Z,15.55
2022-11-05T04:50:37.709Z,15.49
2022-11-05T04:53:04.423Z,15.47
2022-11-05T04:55:31.353Z,15.44
2022-11-05T04:57:58.081Z,15.62
2022-11-05T05:00:25.234Z,15.37
2022-11-05T05:02:53.168Z,15.49
2022-11-05T05:05:21.346Z,15.42
2022-11-05T05:07:48.135Z,15.23
2022-11-05T05:10:14.961Z,15.29
2022-11-05T05:12:41.936Z,15.22
2022-11-05T05:15:08.788Z,15.24
2022-11-05T05:17:35.796Z,15.46
2022-11-05T05:20:21.290Z,15.46
2022-11-05T05:22:54.757Z,15.34
2022-11-05T05:25:22.630Z,15.29
2022-11-05T05:27:49.362Z,15.32
2022-11-05T05:30:16.394Z,15.40
2022-11-05T05:32:43.204Z,15.40
2022-11-05T05:35:10.440Z,15.14
2022-11-05T05:37:37.181Z,15.42
2022-11-05T05:40:04.572Z,15.56
2022-11-05T05:42:31.232Z,15.20
2022-11-05T05:44:57.955Z,15.51
2022-11-05T05:47:25.111Z,15.68
2022-11-05T05:49:52.350Z,15.63
2022-11-05T05:52:19.322Z,15.41
2022-11-05T05:54:46.618Z,15.56
2022-11-05T05:57:13.316Z,15.72
2022-11-05T05:59:40.123Z,15.61
2022-11-05T06:02:08.128Z,15.82
2022-11-05T06:04:35.346Z,15.96
2022-11-05T06:07:02.094Z,15.50
2022-11-05T06:09:29.196Z,15.59
2022-11-05T06:11:55.924Z,15.77
2022-11-05T06:14:22.785Z,16.20
2022-11-05T06:16:49.562Z,15.94
2022-11-05T06:19:16.410Z,15.89
2022-11-05T06:21:43.277Z,15.92
2022-11-05T06:24:10.567Z,15.91
2022-11-05T06:26:42.741Z,16.28
2022-11-05T06:29:10.704Z,16.38
2022-11-05T06:31:37.599Z,16.10
2022-11-05T06:34:04.509Z,16.31
2022-11-05T06:36:31.160Z,16.56
2022-11-05T06:38:57.900Z,16.62
2022-11-05T06:41:24.662Z,16.64
2022-11-05T06:43:51.521Z,16.12
2022-11-05T06:46:18.315Z,16.47
2022-11-05T06:48:45.123Z,16.69
2022-11-05T06:51:11.896Z,16.90
2022-11-05T06:53:38.784Z,16.94
2022-11-05T06:56:07.096Z,16.78
2022-11-05T06:58:34.229Z,17.05
2022-11-05T07:01:06.083Z,16.98
2022-11-05T07:03:33.139Z,17.36
2022-11-05T07:06:04.344Z,17.32
2022-11-05T07:08:32.810Z,17.62
2022-11-05T07:11:00.153Z,17.49
2022-11-05T07:13:27.226Z,17.81
2022-11-05T07:15:54.422Z,17.68
2022-11-05T07:18:21.082Z,17.05
2022-11-05T07:20:48.949Z,17.52
2022-11-05T07:23:16.992Z,17.80
2022-11-05T07:25:43.901Z,17.36
2022-11-05T07:28:10.966Z,17.76
2022-11-05T07:30:38.027Z,17.72
2022-11-05T07:33:05.033Z,18.18
2022-11-05T07:35:31.749Z,17.93
2022-11-05T07:37:58.797Z,18.27
2022-11-05T07:40:28.006Z,18.56
2022-11-05T07:43:00.331Z,19.10
2022-11-05T07:45:29.279Z,19.02
2022-11-05T07:47:58.488Z,18.76
2022-11-05T07:50:28.223Z,19.19
2022-11-05T07:53:01.116Z,18.59
2022-11-05T07:55:29.159Z,18.68
2022-11-05T07:57:55.822Z,18.89
2022-11-05T08:00:24.875Z,19.34
2022-11-05T08:03:06.713Z,18.99
2022-11-05T08:05:36.985Z,19.75
2022-11-05T08:08:04.698Z,19.21
2022-11-05T08:10:31.571Z,20.05
2022-11-05T08:12:58.397Z,20.61
2022-11-05T08:15:25.653Z,20.52
2022-11-05T08:18:05.265Z,20.56
2022-11-05T08:20:32.511Z,20.35
2022-11-05T08:22:59.408Z,20.41
2022-11-05T08:25:26.735Z,21.14
2022-11-05T08:28:08.372Z,21.17
2022-11-05T08:30:35.465Z,20.63
2022-11-05T08:33:04.513Z,21.18
2022-11-05T08:35:31.591Z,21.28
2022-11-05T08:38:00.663Z,21.50
2022-11-05T08:40:27.638Z,21.23
2022-11-05T08:42:57.485Z,21.46
2022-11-05T08:45:25.276Z,22.04
2022-11-05T08:47:58.854Z,22.39
2022-11-05T08:50:25.721Z,22.14
2022-11-05T08:52:52.562Z,22.58
2022-11-05T08:55:19.681Z,22.68
2022-11-05T08:57:46.496Z,22.50
2022-11-05T09:00:14.683Z,22.89
2022-11-05T09:02:41.666Z,23.04
2022-11-05T09:05:08.881Z,23.10
2022-11-05T09:07:35.612Z,22.57
2022-11-05T09:10:02.547Z,21.70
2022-11-05T09:12:29.299Z,22.49
2022-11-05T09:14:56.185Z,22.38
2022-11-05T09:17:23.051Z,22.26
2022-11-05T09:19:49.955Z,22.12
2022-11-05T09:22:16.751Z,22.07
2022-11-05T09:24:43.755Z,22.03
2022-11-05T09:27:13.234Z,22.32
2022-11-05T09:29:41.042Z,21.93
2022-11-05T09:32:08.456Z,21.78
2022-11-05T09:34:35.854Z,21.93
2022-11-05T09:37:02.936Z,21.84
2022-11-05T09:39:29.702Z,21.75
2022-11-05T09:42:02.789Z,21.72
2022-11-05T09:44:53.365Z,21.97
2022-11-05T09:47:28.022Z,22.06
2022-11-05T09:49:57.314Z,21.89
2022-11-05T09:52:27.345Z,22.34
2022-11-05T09:54:55.628Z,21.97
2022-11-05T09:57:29.246Z,22.37
2022-11-05T09:59:59.584Z,22.10
2022-11-05T10:02:35.768Z,22.35
2022-11-05T10:05:09.969Z,21.90
2022-11-05T10:07:48.309Z,21.88
2022-11-05T10:10:25.490Z,22.07
2022-11-05T10:12:59.876Z,22.01
2022-11-05T10:15:34.231Z,22.25
2022-11-05T10:18:32.750Z,22.59
2022-11-05T10:20:59.970Z,22.41
2022-11-05T10:23:28.048Z,22.28
2022-11-05T10:26:05.282Z,22.71
2022-11-05T10:28:34.067Z,22.70
2022-11-05T10:31:06.358Z,22.99
2022-11-05T10:33:42.909Z,23.11
2022-11-05T10:36:15.333Z,22.33
2022-11-05T10:38:42.229Z,22.42
2022-11-05T10:41:37.586Z,22.47
2022-11-05T10:44:32.529Z,22.36
2022-11-05T10:47:02.101Z,22.46
2022-11-05T10:49:40.799Z,22.93
2022-11-05T10:52:29.243Z,22.27
2022-11-05T10:55:01.294Z,22.89
2022-11-05T10:57:37.395Z,22.71
2022-11-05T11:00:25.966Z,22.86
2022-11-05T11:02:55.950Z,22.87
2022-11-05T11:05:29.751Z,23.19
2022-11-05T11:08:11.614Z,22.91
2022-11-05T11:11:07.846Z,23.09
2022-11-05T11:14:13.558Z,22.97
2022-11-05T11:16:50.349Z,22.95
2022-11-05T11:19:28.098Z,23.10
2022-11-05T11:22:20.431Z,22.43
2022-11-05T11:24:50.919Z,22.26
2022-11-05T11:27:29.358Z,22.52
2022-11-05T11:30:01.809Z,22.42
2022-11-05T11:32:40.014Z,22.67
2022-11-05T11:35:18.657Z,22.69
2022-11-05T11:37:46.771Z,22.79
2022-11-05T11:40:30.698Z,22.18
2022-11-05T11:43:03.131Z,22.15
2022-11-05T11:45:44.403Z,21.90
2022-11-05T11:48:34.756Z,22.50
2022-11-05T11:51:17.372Z,22.40
2022-11-05T11:53:44.487Z,22.35
2022-11-05T11:56:21.710Z,22.38
2022-11-05T11:58:54.623Z,22.64
2022-11-05T12:01:39.821Z,22.94
2022-11-05T12:04:21.607Z,22.73
2022-11-05T12:07:18.666Z,22.52
2022-11-05T12:10:10.203Z,22.51
2022-11-05T12:12:49.011Z,22.34
2022-11-05T12:15:27.679Z,22.42
2022-11-05T12:18:16.200Z,22.47
2022-11-05T12:20:56.906Z,22.61
2022-11-05T12:23:54.632Z,22.79
2022-11-05T12:26:39.922Z,22.56
2022-11-05T12:29:35.968Z,22.32
2022-11-05T12:32:24.316Z,22.37
2022-11-05T12:35:22.145Z,22.59
2022-11-05T12:38:19.685Z,22.39
2022-11-05T12:41:15.936Z,22.62
2022-11-05T12:44:14.306Z,22.81
2022-11-05T12:47:14.763Z,22.74
2022-11-05T12:49:59.994Z,22.52
2022-11-05T12:52:44.898Z,22.44
2022-11-05T12:55:20.633Z,22.72
2022-11-05T12:57:52.854Z,22.62
2022-11-05T13:00:23.359Z,22.39
2022-11-05T13:02:51.436Z,22.37
2022-11-05T13:05:35.147Z,22.52
2022-11-05T13:08:11.813Z,22.48
2022-11-05T13:11:21.151Z,22.32
2022-11-05T13:13:57.137Z,22.44
2022-11-05T13:16:38.480Z,22.24
2022-11-05T13:19:15.436Z,21.89
2022-11-05T13:21:45.739Z,21.78
2022-11-05T13:24:27.804Z,22.08
2022-11-05T13:27:29.875Z,21.87
2022-11-05T13:30:05.705Z,22.13
2022-11-05T13:32:38.608Z,22.34
2022-11-05T13:35:13.262Z,22.43
2022-11-05T13:38:03.695Z,22.40
2022-11-05T13:41:12.353Z,22.52
2022-11-05T13:44:03.392Z,22.38
2022-11-05T13:46:48.209Z,22.22
2022-11-05T13:49:49.137Z,22.32
2022-11-05T13:52:34.313Z,22.44
2022-11-05T13:55:30.921Z,22.17
2022-11-05T13:57:57.758Z,22.16
2022-11-05T14:00:27.265Z,22.37
2022-11-05T14:03:04.694Z,22.31
2022-11-05T14:05:38.435Z,22.27
2022-11-05T14:08:18.618Z,21.94
2022-11-05T14:10:58.258Z,22.09
2022-11-05T14:13:42.437Z,22.12
2022-11-05T14:16:16.666Z,22.37
2022-11-05T14:19:18.312Z,22.34
2022-11-05T14:21:52.818Z,22.28
2022-11-05T14:24:22.612Z,22.15
2022-11-05T14:27:10.317Z,22.18
2022-11-05T14:29:38.654Z,22.14
2022-11-05T14:32:26.329Z,22.12
2022-11-05T14:34:57.079Z,22.14
2022-11-05T14:37:27.676Z,22.14
2022-11-05T14:39:55.910Z,22.07
2022-11-05T14:42:26.848Z,22.06
2022-11-05T14:45:05.977Z,21.93
2022-11-05T14:47:40.677Z,21.89
2022-11-05T14:50:22.204Z,21.85
2022-11-05T14:52:54.517Z,21.79
2022-11-05T14:55:33.798Z,21.53
2022-11-05T14:58:04.744Z,21.48
2022-11-05T15:00:32.414Z,21.43
2022-11-05T15:03:01.571Z,21.45
2022-11-05T15:05:31.168Z,21.39
2022-11-05T15:07:59.301Z,21.32
2022-11-05T15:10:33.426Z,21.26
2022-11-05T15:13:05.663Z,21.11
2022-11-05T15:15:42.403Z,21.17
2022-11-05T15:18:32.743Z,21.05
2022-11-05T15:21:03.449Z,20.96
2022-11-05T15:23:39.073Z,20.92
2022-11-05T15:26:48.686Z,20.83
2022-11-05T15:29:19.190Z,20.83
2022-11-05T15:31:47.064Z,20.62
2022-11-05T15:34:32.041Z,20.68
2022-11-05T15:37:01.321Z,20.55
2022-11-05T15:39:41.102Z,20.47
2022-11-05T15:42:28.113Z,20.36
2022-11-05T15:44:57.321Z,20.41
2022-11-05T15:47:29.129Z,20.36
2022-11-05T15:50:03.969Z,20.42
2022-11-05T15:52:42.348Z,20.27
2022-11-05T15:55:18.979Z,20.25
2022-11-05T15:57:51.454Z,20.25
2022-11-05T16:00:26.866Z,20.16
2022-11-05T16:02:57.533Z,20.16
2022-11-05T16:05:27.040Z,20.12
2022-11-05T16:07:54.442Z,20.08
2022-11-05T16:10:24.592Z,20.15
2022-11-05T16:12:51.441Z,20.02
2022-11-05T16:15:22.123Z,20.01
2022-11-05T16:17:50.636Z,19.94
2022-11-05T16:20:28.742Z,20.31
2022-11-05T16:23:07.135Z,20.10
2022-11-05T16:25:39.879Z,20.07
2022-11-05T16:28:29.096Z,19.66
2022-11-05T16:30:58.287Z,19.01
2022-11-05T16:33:45.970Z,19.12
2022-11-05T16:36:13.148Z,19.07
2022-11-05T16:38:40.269Z,19.24
2022-11-05T16:41:12.532Z,19.52
2022-11-05T16:43:39.554Z,19.62
2022-11-05T16:46:06.408Z,19.56
2022-11-05T16:48:33.268Z,19.23
2022-11-05T16:51:00.324Z,19.08
2022-11-05T16:53:27.206Z,19.00
2022-11-05T16:55:53.884Z,19.02
2022-11-05T16:58:26.302Z,19.34
2022-11-05T17:01:02.015Z,19.07
2022-11-05T17:03:29.014Z,19.10
2022-11-05T17:05:57.139Z,19.41
2022-11-05T17:08:23.881Z,19.43
2022-11-05T17:10:50.709Z,19.44
2022-11-05T17:13:19.146Z,19.55
2022-11-05T17:15:48.514Z,19.77
2022-11-05T17:18:18.962Z,19.74
2022-11-05T17:20:49.662Z,19.61
2022-11-05T17:23:19.644Z,19.08
2022-11-05T17:25:49.247Z,19.11
2022-11-05T17:28:17.555Z,19.42
2022-11-05T17:30:50.882Z,19.53
2022-11-05T17:33:20.682Z,19.39
2022-11-05T17:35:47.542Z,19.39
2022-11-05T17:38:15.804Z,19.18
2022-11-05T17:40:42.661Z,19.27
2022-11-05T17:43:11.373Z,19.17
2022-11-05T17:45:45.675Z,19.27
2022-11-05T17:48:12.767Z,19.39
2022-11-05T17:50:42.464Z,19.28
2022-11-05T17:53:09.733Z,19.30
2022-11-05T17:55:36.951Z,19.10
2022-11-05T17:58:03.693Z,19.33
2022-11-05T18:00:31.110Z,19.38
2022-11-05T18:02:57.994Z,19.24
2022-11-05T18:05:27.878Z,19.05
2022-11-05T18:07:58.194Z,19.21
2022-11-05T18:10:25.479Z,19.26
2022-11-05T18:12:52.240Z,19.26
2022-11-05T18:15:19.126Z,19.30
2022-11-05T18:17:46.667Z,19.27
2022-11-05T18:20:18.880Z,19.26
2022-11-05T18:22:49.634Z,19.23
2022-11-05T18:25:16.983Z,19.17
2022-11-05T18:27:44.249Z,19.14
2022-11-05T18:30:14.032Z,18.96
2022-11-05T18:32:42.211Z,19.08
2022-11-05T18:35:09.459Z,19.09
2022-11-05T18:37:38.822Z,19.16
2022-11-05T18:40:07.279Z,18.96
2022-11-05T18:42:34.109Z,19.05
2022-11-05T18:45:00.863Z,19.00
2022-11-05T18:47:27.777Z,18.95
2022-11-05T18:49:54.602Z,19.04
2022-11-05T18:52:21.543Z,18.95
2022-11-05T18:54:48.302Z,18.61
2022-11-05T18:57:15.271Z,18.40
2022-11-05T18:59:46.585Z,18.82
2022-11-05T19:02:14.671Z,19.06
2022-11-05T19:04:55.338Z,19.00
2022-11-05T19:07:29.013Z,18.99
2022-11-05T19:09:56.094Z,18.89
2022-11-05T19:12:23.189Z,18.88
2022-11-05T19:14:50.057Z,18.69
2022-11-05T19:17:16.810Z,18.85
2022-11-05T19:19:43.747Z,18.98
2022-11-05T19:22:10.745Z,18.95
2022-11-05T19:24:37.707Z,18.78
2022-11-05T19:27:04.474Z,19.09
2022-11-05T19:29:31.370Z,19.23
2022-11-05T19:31:58.257Z,19.13
2022-11-05T19:34:25.071Z,19.08
2022-11-05T19:36:51.955Z,18.89
2022-11-05T19:39:18.777Z,18.92
2022-11-05T19:41:45.779Z,18.91
2022-11-05T19:44:12.489Z,18.93
2022-11-05T19:46:39.297Z,19.06
2022-11-05T19:49:06.108Z,18.94
2022-11-05T19:51:33.453Z,18.86
2022-11-05T19:54:01.895Z,18.83
2022-11-05T19:56:32.114Z,18.73
2022-11-05T19:58:59.878Z,18.76
2022-11-05T20:01:28.454Z,18.68
2022-11-05T20:03:57.737Z,18.56
2022-11-05T20:06:29.404Z,18.84
2022-11-05T20:11:45.377Z,18.50
2022-11-05T20:14:12.187Z,18.56
2022-11-05T20:16:40.260Z,18.68
2022-11-05T20:19:13.109Z,18.75
2022-11-05T20:21:40.875Z,18.64
2022-11-05T20:24:08.114Z,18.62
2022-11-05T20:26:35.175Z,18.60
2022-11-05T20:29:02.001Z,18.55
2022-11-05T20:31:29.134Z,18.69
2022-11-05T20:33:56.490Z,18.67
2022-11-05T20:36:24.862Z,18.68
2022-11-05T20:39:02.893Z,18.67
2022-11-05T20:41:30.783Z,18.58
2022-11-05T20:43:58.049Z,18.59
2022-11-05T20:46:25.636Z,18.60
2022-11-05T20:48:53.534Z,18.60
2022-11-05T20:51:22.876Z,18.37
2022-11-05T20:53:53.890Z,18.54
2022-11-05T20:56:26.848Z,18.48
2022-11-05T20:58:54.007Z,18.39
2022-11-05T21:01:21.253Z,18.28
2022-11-05T21:03:48.254Z,18.37
2022-11-05T21:06:16.077Z,18.52
2022-11-05T21:08:43.574Z,18.40
2022-11-05T21:11:10.823Z,18.40
2022-11-05T21:13:38.898Z,18.04
2022-11-05T21:16:08.081Z,18.06
2022-11-05T21:18:37.605Z,18.26
2022-11-05T21:21:15.079Z,18.27
2022-11-05T21:23:42.239Z,17.76
2022-11-05T21:26:12.214Z,18.19
2022-11-05T21:28:41.105Z,18.15
2022-11-05T21:31:08.812Z,17.86
2022-11-05T21:33:35.789Z,18.19
2022-11-05T21:36:10.610Z,18.22
2022-11-05T21:38:37.707Z,18.35
2022-11-05T21:41:05.682Z,18.28
2022-11-05T21:43:33.141Z,18.39
2022-11-05T21:46:04.766Z,17.97
2022-11-05T21:48:32.247Z,18.13
2022-11-05T21:51:17.602Z,18.04
2022-11-05T21:54:02.972Z,18.05
2022-11-05T21:56:51.197Z,18.04
2022-11-05T21:59:41.588Z,18.29
2022-11-05T22:02:11.307Z,18.11
2022-11-05T22:04:45.005Z,18.24
2022-11-05T22:07:14.961Z,18.07
2022-11-05T22:09:42.004Z,18.27
2022-11-05T22:12:09.565Z,18.21
2022-11-05T22:14:36.656Z,18.18
2022-11-05T22:17:03.882Z,18.20
2022-11-05T22:19:31.099Z,18.32
2022-11-05T22:21:57.894Z,17.85
2022-11-05T22:24:25.956Z,16.81
2022-11-05T22:26:52.655Z,16.63
2022-11-05T22:29:19.823Z,17.11
2022-11-05T22:31:46.624Z,17.44
2022-11-05T22:34:13.939Z,17.60
2022-11-05T22:36:40.851Z,17.51
2022-11-05T22:39:07.582Z,17.76
2022-11-05T22:41:34.617Z,17.85
2022-11-05T22:44:03.370Z,17.57
2022-11-05T22:46:30.969Z,17.83
2022-11-05T22:48:58.312Z,17.57
2022-11-05T22:51:27.934Z,17.55
2022-11-05T22:53:55.172Z,17.76
2022-11-05T22:56:24.443Z,17.93
2022-11-05T22:58:51.824Z,17.88
2022-11-05T23:01:20.407Z,18.03
2022-11-05T23:03:49.133Z,17.29
2022-11-05T23:06:37.886Z,17.61
2022-11-05T23:09:45.840Z,17.08
2022-11-05T23:12:26.183Z,17.60
2022-11-05T23:14:54.473Z,17.54
2022-11-05T23:17:40.037Z,16.96
2022-11-05T23:20:29.271Z,17.15
2022-11-05T23:23:15.670Z,17.26
2022-11-05T23:25:43.518Z,17.64
2022-11-05T23:28:11.537Z,17.82
2022-11-05T23:31:02.098Z,18.01
2022-11-05T23:33:32.422Z,17.89
2022-11-05T23:36:17.794Z,17.52
2022-11-05T23:38:45.130Z,17.48
2022-11-05T23:41:30.703Z,17.63
2022-11-05T23:44:16.063Z,17.68
2022-11-05T23:47:01.986Z,18.07
2022-11-05T23:49:29.105Z,17.73
2022-11-05T23:51:58.720Z,17.77
2022-11-05T23:54:25.583Z,17.82
2022-11-05T23:56:52.304Z,17.87
2022-11-05T23:59:19.269Z,16.67
